sensor_id;sensor_type;location;lat;lon;timestamp;temperature;humidity
22192;DHT22;11261;52.456;10.850;2023-04-30T00:01:12;7.60;99.90
22192;DHT22;11261;52.456;10.850;2023-04-30T00:03:41;7.70;99.90
22192;DHT22;11261;52.456;10.850;2023-04-30T00:06:10;7.70;99.90
22192;DHT22;11261;52.456;10.850;2023-04-30T00:08:38;7.70;99.90
22192;DHT22;11261;52.456;10.850;2023-04-30T00:11:07;7.70;99.90
22192;DHT22;11261;52.456;10.850;2023-04-30T00:13:35;7.70;99.90
22192;DHT22;11261;52.456;10.850;2023-04-30T00:16:04;7.70;99.90
22192;DHT22;11261;52.456;10.850;2023-04-30T00:18:32;7.60;99.90
22192;DHT22;11261;52.456;10.850;2023-04-30T00:21:01;7.60;99.90
22192;DHT22;11261;52.456;10.850;2023-04-30T00:23:30;7.50;99.90
22192;DHT22;11261;52.456;10.850;2023-04-30T00:25:58;7.50;99.90
22192;DHT22;11261;52.456;10.850;2023-04-30T00:28:27;7.40;99.90
22192;DHT22;11261;52.456;10.850;2023-04-30T00:30:55;7.40;99.90
22192;DHT22;11261;52.456;10.850;2023-04-30T00:33:23;7.30;99.90
22192;DHT22;11261;52.456;10.850;2023-04-30T00:35:51;7.20;99.90
22192;DHT22;11261;52.456;10.850;2023-04-30T00:38:19;7.20;99.90
22192;DHT22;11261;52.456;10.850;2023-04-30T00:40:49;7.20;99.90
22192;DHT22;11261;52.456;10.850;2023-04-30T00:43:18;7.10;99.90
22192;DHT22;11261;52.456;10.850;2023-04-30T00:45:46;7.00;99.90
22192;DHT22;11261;52.456;10.850;2023-04-30T00:48:14;7.00;99.90
22192;DHT22;11261;52.456;10.850;2023-04-30T00:50:43;7.00;99.90
22192;DHT22;11261;52.456;10.850;2023-04-30T00:53:12;7.10;99.90
22192;DHT22;11261;52.456;10.850;2023-04-30T00:55:40;7.00;99.90
22192;DHT22;11261;52.456;10.850;2023-04-30T00:58:10;6.90;99.90
22192;DHT22;11261;52.456;10.850;2023-04-30T01:00:38;6.90;99.90
22192;DHT22;11261;52.456;10.850;2023-04-30T01:03:13;6.80;99.90
22192;DHT22;11261;52.456;10.850;2023-04-30T01:05:42;6.70;99.90
22192;DHT22;11261;52.456;10.850;2023-04-30T01:08:10;6.60;99.90
22192;DHT22;11261;52.456;10.850;2023-04-30T01:10:43;6.70;99.90
22192;DHT22;11261;52.456;10.850;2023-04-30T01:13:19;6.80;99.90
22192;DHT22;11261;52.456;10.850;2023-04-30T01:15:56;6.80;99.90
22192;DHT22;11261;52.456;10.850;2023-04-30T01:18:28;6.80;99.90
22192;DHT22;11261;52.456;10.850;2023-04-30T01:21:01;6.70;99.90
22192;DHT22;11261;52.456;10.850;2023-04-30T01:23:46;6.80;99.90
22192;DHT22;11261;52.456;10.850;2023-04-30T01:26:33;6.60;99.90
22192;DHT22;11261;52.456;10.850;2023-04-30T01:29:07;6.60;99.90
22192;DHT22;11261;52.456;10.850;2023-04-30T01:31:37;6.60;99.90
22192;DHT22;11261;52.456;10.850;2023-04-30T01:34:05;6.50;99.90
22192;DHT22;11261;52.456;10.850;2023-04-30T01:36:44;6.60;99.90
22192;DHT22;11261;52.456;10.850;2023-04-30T01:39:29;6.50;99.90
22192;DHT22;11261;52.456;10.850;2023-04-30T01:42:05;6.40;99.90
22192;DHT22;11261;52.456;10.850;2023-04-30T01:44:46;6.50;99.90
22192;DHT22;11261;52.456;10.850;2023-04-30T01:47:25;6.60;99.90
22192;DHT22;11261;52.456;10.850;2023-04-30T01:50:11;6.50;99.90
22192;DHT22;11261;52.456;10.850;2023-04-30T01:52:46;6.50;99.90
22192;DHT22;11261;52.456;10.850;2023-04-30T01:55:20;6.30;99.90
22192;DHT22;11261;52.456;10.850;2023-04-30T01:57:55;6.40;99.90
22192;DHT22;11261;52.456;10.850;2023-04-30T02:00:27;6.30;99.90
22192;DHT22;11261;52.456;10.850;2023-04-30T02:02:56;6.30;99.90
22192;DHT22;11261;52.456;10.850;2023-04-30T02:05:25;6.20;99.90
22192;DHT22;11261;52.456;10.850;2023-04-30T02:07:53;6.20;99.90
22192;DHT22;11261;52.456;10.850;2023-04-30T02:10:25;6.10;99.90
22192;DHT22;11261;52.456;10.850;2023-04-30T02:12:55;6.00;99.90
22192;DHT22;11261;52.456;10.850;2023-04-30T02:15:23;6.10;99.90
22192;DHT22;11261;52.456;10.850;2023-04-30T02:17:52;6.10;99.90
22192;DHT22;11261;52.456;10.850;2023-04-30T02:20:21;6.20;99.90
22192;DHT22;11261;52.456;10.850;2023-04-30T02:22:50;6.20;99.90
22192;DHT22;11261;52.456;10.850;2023-04-30T02:25:18;6.10;99.90
22192;DHT22;11261;52.456;10.850;2023-04-30T02:27:46;6.10;99.90
22192;DHT22;11261;52.456;10.850;2023-04-30T02:30:16;6.00;99.90
22192;DHT22;11261;52.456;10.850;2023-04-30T02:32:45;6.00;99.90
22192;DHT22;11261;52.456;10.850;2023-04-30T02:35:15;6.00;99.90
22192;DHT22;11261;52.456;10.850;2023-04-30T02:37:44;5.90;99.90
22192;DHT22;11261;52.456;10.850;2023-04-30T02:40:12;6.00;99.90
22192;DHT22;11261;52.456;10.850;2023-04-30T02:42:41;6.00;99.90
22192;DHT22;11261;52.456;10.850;2023-04-30T02:45:09;5.90;99.90
22192;DHT22;11261;52.456;10.850;2023-04-30T02:47:38;5.90;99.90
22192;DHT22;11261;52.456;10.850;2023-04-30T02:50:07;5.80;99.90
22192;DHT22;11261;52.456;10.850;2023-04-30T02:52:36;5.90;99.90
22192;DHT22;11261;52.456;10.850;2023-04-30T02:55:05;5.80;99.90
22192;DHT22;11261;52.456;10.850;2023-04-30T02:57:34;5.80;99.90
22192;DHT22;11261;52.456;10.850;2023-04-30T03:00:02;5.70;99.90
22192;DHT22;11261;52.456;10.850;2023-04-30T03:02:32;5.70;99.90
22192;DHT22;11261;52.456;10.850;2023-04-30T03:05:00;5.70;99.90
22192;DHT22;11261;52.456;10.850;2023-04-30T03:07:28;5.70;99.90
22192;DHT22;11261;52.456;10.850;2023-04-30T03:09:58;5.70;99.90
22192;DHT22;11261;52.456;10.850;2023-04-30T03:12:26;5.70;99.90
22192;DHT22;11261;52.456;10.850;2023-04-30T03:14:55;5.60;99.90
22192;DHT22;11261;52.456;10.850;2023-04-30T03:17:23;5.60;99.90
22192;DHT22;11261;52.456;10.850;2023-04-30T03:19:51;5.60;99.90
22192;DHT22;11261;52.456;10.850;2023-04-30T03:22:20;5.50;99.90
22192;DHT22;11261;52.456;10.850;2023-04-30T03:24:50;5.50;99.90
22192;DHT22;11261;52.456;10.850;2023-04-30T03:27:19;5.40;99.90
22192;DHT22;11261;52.456;10.850;2023-04-30T03:29:48;5.30;99.90
22192;DHT22;11261;52.456;10.850;2023-04-30T03:32:16;5.30;99.90
22192;DHT22;11261;52.456;10.850;2023-04-30T03:34:45;5.30;99.90
22192;DHT22;11261;52.456;10.850;2023-04-30T03:37:13;5.30;99.90
22192;DHT22;11261;52.456;10.850;2023-04-30T03:39:41;5.30;99.90
22192;DHT22;11261;52.456;10.850;2023-04-30T03:42:09;5.20;99.90
22192;DHT22;11261;52.456;10.850;2023-04-30T03:44:39;5.20;99.90
22192;DHT22;11261;52.456;10.850;2023-04-30T03:47:08;5.20;99.90
22192;DHT22;11261;52.456;10.850;2023-04-30T03:49:37;5.20;99.90
22192;DHT22;11261;52.456;10.850;2023-04-30T03:52:05;5.20;99.90
22192;DHT22;11261;52.456;10.850;2023-04-30T03:54:33;5.10;99.90
22192;DHT22;11261;52.456;10.850;2023-04-30T03:57:02;5.10;99.90
22192;DHT22;11261;52.456;10.850;2023-04-30T03:59:31;5.00;99.90
22192;DHT22;11261;52.456;10.850;2023-04-30T04:02:01;5.00;99.90
22192;DHT22;11261;52.456;10.850;2023-04-30T04:04:29;5.00;99.90
22192;DHT22;11261;52.456;10.850;2023-04-30T04:06:57;5.10;99.90
22192;DHT22;11261;52.456;10.850;2023-04-30T04:09:26;5.10;99.90
22192;DHT22;11261;52.456;10.850;2023-04-30T04:11:55;5.20;99.90
22192;DHT22;11261;52.456;10.850;2023-04-30T04:14:23;5.20;99.90
22192;DHT22;11261;52.456;10.850;2023-04-30T04:16:51;5.20;99.90
22192;DHT22;11261;52.456;10.850;2023-04-30T04:19:21;5.20;99.90
22192;DHT22;11261;52.456;10.850;2023-04-30T04:21:49;5.20;99.90
22192;DHT22;11261;52.456;10.850;2023-04-30T04:24:18;5.30;99.90
22192;DHT22;11261;52.456;10.850;2023-04-30T04:26:46;5.30;99.90
22192;DHT22;11261;52.456;10.850;2023-04-30T04:29:14;5.50;99.90
22192;DHT22;11261;52.456;10.850;2023-04-30T04:31:43;5.50;99.90
22192;DHT22;11261;52.456;10.850;2023-04-30T04:34:11;5.70;99.90
22192;DHT22;11261;52.456;10.850;2023-04-30T04:36:41;5.90;99.90
22192;DHT22;11261;52.456;10.850;2023-04-30T04:39:09;6.00;99.90
22192;DHT22;11261;52.456;10.850;2023-04-30T04:41:39;6.30;99.90
22192;DHT22;11261;52.456;10.850;2023-04-30T04:44:08;6.60;99.90
22192;DHT22;11261;52.456;10.850;2023-04-30T04:46:36;6.90;99.90
22192;DHT22;11261;52.456;10.850;2023-04-30T04:49:08;7.30;99.90
22192;DHT22;11261;52.456;10.850;2023-04-30T04:51:36;7.70;99.90
22192;DHT22;11261;52.456;10.850;2023-04-30T04:54:06;8.20;99.90
22192;DHT22;11261;52.456;10.850;2023-04-30T04:56:34;8.40;99.90
22192;DHT22;11261;52.456;10.850;2023-04-30T04:59:03;8.80;99.90
22192;DHT22;11261;52.456;10.850;2023-04-30T05:01:31;9.20;99.90
22192;DHT22;11261;52.456;10.850;2023-04-30T05:03:59;9.50;99.90
22192;DHT22;11261;52.456;10.850;2023-04-30T05:06:28;9.70;99.90
22192;DHT22;11261;52.456;10.850;2023-04-30T05:08:56;10.00;99.90
22192;DHT22;11261;52.456;10.850;2023-04-30T05:11:26;9.90;99.90
22192;DHT22;11261;52.456;10.850;2023-04-30T05:13:54;10.40;99.90
22192;DHT22;11261;52.456;10.850;2023-04-30T05:16:24;10.60;99.90
22192;DHT22;11261;52.456;10.850;2023-04-30T05:18:52;10.60;99.90
22192;DHT22;11261;52.456;10.850;2023-04-30T05:21:20;10.70;99.90
22192;DHT22;11261;52.456;10.850;2023-04-30T05:23:48;10.20;99.90
22192;DHT22;11261;52.456;10.850;2023-04-30T05:26:17;10.50;99.90
22192;DHT22;11261;52.456;10.850;2023-04-30T05:28:46;11.10;99.90
22192;DHT22;11261;52.456;10.850;2023-04-30T05:31:14;11.80;99.90
22192;DHT22;11261;52.456;10.850;2023-04-30T05:33:45;11.90;99.90
22192;DHT22;11261;52.456;10.850;2023-04-30T05:36:14;12.00;99.90
22192;DHT22;11261;52.456;10.850;2023-04-30T05:38:42;11.30;99.90
22192;DHT22;11261;52.456;10.850;2023-04-30T05:41:11;12.10;99.90
22192;DHT22;11261;52.456;10.850;2023-04-30T05:43:39;12.20;99.90
22192;DHT22;11261;52.456;10.850;2023-04-30T05:46:08;12.30;99.90
22192;DHT22;11261;52.456;10.850;2023-04-30T05:48:37;11.90;99.90
22192;DHT22;11261;52.456;10.850;2023-04-30T05:51:06;11.40;99.90
22192;DHT22;11261;52.456;10.850;2023-04-30T05:53:34;12.40;99.90
22192;DHT22;11261;52.456;10.850;2023-04-30T05:56:02;13.30;99.90
22192;DHT22;11261;52.456;10.850;2023-04-30T05:58:31;13.40;99.90
22192;DHT22;11261;52.456;10.850;2023-04-30T06:00:59;13.50;99.90
22192;DHT22;11261;52.456;10.850;2023-04-30T06:03:28;12.50;99.90
22192;DHT22;11261;52.456;10.850;2023-04-30T06:05:57;12.50;99.90
22192;DHT22;11261;52.456;10.850;2023-04-30T06:08:25;13.50;99.90
22192;DHT22;11261;52.456;10.850;2023-04-30T06:10:53;12.60;99.90
22192;DHT22;11261;52.456;10.850;2023-04-30T06:13:21;12.20;99.90
22192;DHT22;11261;52.456;10.850;2023-04-30T06:15:50;12.50;99.90
22192;DHT22;11261;52.456;10.850;2023-04-30T06:18:18;12.70;98.90
22192;DHT22;11261;52.456;10.850;2023-04-30T06:20:47;12.10;99.90
22192;DHT22;11261;52.456;10.850;2023-04-30T06:23:15;13.00;99.90
22192;DHT22;11261;52.456;10.850;2023-04-30T06:25:44;12.80;99.90
22192;DHT22;11261;52.456;10.850;2023-04-30T06:28:12;13.00;99.90
22192;DHT22;11261;52.456;10.850;2023-04-30T06:30:40;14.00;99.90
22192;DHT22;11261;52.456;10.850;2023-04-30T06:33:08;13.50;99.20
22192;DHT22;11261;52.456;10.850;2023-04-30T06:35:36;14.50;95.20
22192;DHT22;11261;52.456;10.850;2023-04-30T06:38:06;13.40;98.50
22192;DHT22;11261;52.456;10.850;2023-04-30T06:40:35;13.10;99.90
22192;DHT22;11261;52.456;10.850;2023-04-30T06:43:03;13.10;95.10
22192;DHT22;11261;52.456;10.850;2023-04-30T06:45:31;14.20;94.80
22192;DHT22;11261;52.456;10.850;2023-04-30T06:47:59;14.10;98.90
22192;DHT22;11261;52.456;10.850;2023-04-30T06:50:27;13.60;93.50
22192;DHT22;11261;52.456;10.850;2023-04-30T06:52:56;13.50;97.90
22192;DHT22;11261;52.456;10.850;2023-04-30T06:55:25;14.00;95.70
22192;DHT22;11261;52.456;10.850;2023-04-30T06:57:54;13.90;97.20
22192;DHT22;11261;52.456;10.850;2023-04-30T07:00:23;13.30;97.90
22192;DHT22;11261;52.456;10.850;2023-04-30T07:02:52;13.70;99.60
22192;DHT22;11261;52.456;10.850;2023-04-30T07:05:20;14.40;94.40
22192;DHT22;11261;52.456;10.850;2023-04-30T07:07:49;14.30;91.20
22192;DHT22;11261;52.456;10.850;2023-04-30T07:10:17;14.20;98.20
22192;DHT22;11261;52.456;10.850;2023-04-30T07:12:47;14.40;95.60
22192;DHT22;11261;52.456;10.850;2023-04-30T07:15:15;13.90;95.10
22192;DHT22;11261;52.456;10.850;2023-04-30T07:17:43;12.30;92.50
22192;DHT22;11261;52.456;10.850;2023-04-30T07:20:12;13.00;94.70
22192;DHT22;11261;52.456;10.850;2023-04-30T07:22:41;12.80;95.40
22192;DHT22;11261;52.456;10.850;2023-04-30T07:25:12;13.50;95.70
22192;DHT22;11261;52.456;10.850;2023-04-30T07:27:40;14.70;94.00
22192;DHT22;11261;52.456;10.850;2023-04-30T07:30:10;14.80;93.50
22192;DHT22;11261;52.456;10.850;2023-04-30T07:32:38;15.60;93.30
22192;DHT22;11261;52.456;10.850;2023-04-30T07:35:09;12.80;94.10
22192;DHT22;11261;52.456;10.850;2023-04-30T07:37:37;13.00;95.90
22192;DHT22;11261;52.456;10.850;2023-04-30T07:40:08;13.50;91.70
22192;DHT22;11261;52.456;10.850;2023-04-30T07:42:45;12.00;92.40
22192;DHT22;11261;52.456;10.850;2023-04-30T07:45:14;11.80;96.80
22192;DHT22;11261;52.456;10.850;2023-04-30T07:47:43;13.60;95.00
22192;DHT22;11261;52.456;10.850;2023-04-30T07:50:13;14.70;95.70
22192;DHT22;11261;52.456;10.850;2023-04-30T07:52:41;15.10;92.90
22192;DHT22;11261;52.456;10.850;2023-04-30T07:55:10;15.40;94.00
22192;DHT22;11261;52.456;10.850;2023-04-30T07:57:38;15.00;91.60
22192;DHT22;11261;52.456;10.850;2023-04-30T08:00:07;15.30;90.80
22192;DHT22;11261;52.456;10.850;2023-04-30T08:02:37;15.10;92.90
22192;DHT22;11261;52.456;10.850;2023-04-30T08:05:05;15.30;90.40
22192;DHT22;11261;52.456;10.850;2023-04-30T08:07:34;15.90;93.60
22192;DHT22;11261;52.456;10.850;2023-04-30T08:10:02;16.00;93.20
22192;DHT22;11261;52.456;10.850;2023-04-30T08:12:30;16.90;92.70
22192;DHT22;11261;52.456;10.850;2023-04-30T08:14:59;17.10;90.20
22192;DHT22;11261;52.456;10.850;2023-04-30T08:17:28;16.80;89.90
22192;DHT22;11261;52.456;10.850;2023-04-30T08:19:58;16.50;92.70
22192;DHT22;11261;52.456;10.850;2023-04-30T08:22:27;16.60;90.60
22192;DHT22;11261;52.456;10.850;2023-04-30T08:24:55;17.00;92.20
22192;DHT22;11261;52.456;10.850;2023-04-30T08:27:24;16.60;87.90
22192;DHT22;11261;52.456;10.850;2023-04-30T08:29:52;17.00;86.50
22192;DHT22;11261;52.456;10.850;2023-04-30T08:32:21;17.50;84.30
22192;DHT22;11261;52.456;10.850;2023-04-30T08:34:49;17.60;89.20
22192;DHT22;11261;52.456;10.850;2023-04-30T08:37:19;17.30;88.00
22192;DHT22;11261;52.456;10.850;2023-04-30T08:39:48;17.40;87.50
22192;DHT22;11261;52.456;10.850;2023-04-30T08:42:16;18.20;90.00
22192;DHT22;11261;52.456;10.850;2023-04-30T08:44:45;18.00;83.50
22192;DHT22;11261;52.456;10.850;2023-04-30T08:47:15;17.50;81.70
22192;DHT22;11261;52.456;10.850;2023-04-30T08:49:44;18.00;90.00
22192;DHT22;11261;52.456;10.850;2023-04-30T08:52:13;18.20;91.40
22192;DHT22;11261;52.456;10.850;2023-04-30T08:54:43;18.00;85.40
22192;DHT22;11261;52.456;10.850;2023-04-30T08:57:12;18.10;90.80
22192;DHT22;11261;52.456;10.850;2023-04-30T08:59:40;17.90;84.40
22192;DHT22;11261;52.456;10.850;2023-04-30T09:02:11;17.90;83.30
22192;DHT22;11261;52.456;10.850;2023-04-30T09:04:40;16.90;85.90
22192;DHT22;11261;52.456;10.850;2023-04-30T09:07:08;14.90;81.70
22192;DHT22;11261;52.456;10.850;2023-04-30T09:09:38;17.10;89.50
22192;DHT22;11261;52.456;10.850;2023-04-30T09:12:17;17.50;86.00
22192;DHT22;11261;52.456;10.850;2023-04-30T09:15:00;17.60;85.00
22192;DHT22;11261;52.456;10.850;2023-04-30T09:17:28;18.30;85.90
22192;DHT22;11261;52.456;10.850;2023-04-30T09:20:06;18.40;89.30
22192;DHT22;11261;52.456;10.850;2023-04-30T09:22:35;18.60;84.40
22192;DHT22;11261;52.456;10.850;2023-04-30T09:25:05;17.20;76.00
22192;DHT22;11261;52.456;10.850;2023-04-30T09:27:35;16.50;80.30
22192;DHT22;11261;52.456;10.850;2023-04-30T09:30:03;16.40;81.20
22192;DHT22;11261;52.456;10.850;2023-04-30T09:32:32;16.70;82.40
22192;DHT22;11261;52.456;10.850;2023-04-30T09:35:00;18.40;88.50
22192;DHT22;11261;52.456;10.850;2023-04-30T09:37:36;18.90;86.10
22192;DHT22;11261;52.456;10.850;2023-04-30T09:40:05;19.30;79.10
22192;DHT22;11261;52.456;10.850;2023-04-30T09:42:35;19.80;86.60
22192;DHT22;11261;52.456;10.850;2023-04-30T09:45:04;18.70;74.90
22192;DHT22;11261;52.456;10.850;2023-04-30T09:47:33;15.00;80.00
22192;DHT22;11261;52.456;10.850;2023-04-30T09:50:02;14.70;84.90
22192;DHT22;11261;52.456;10.850;2023-04-30T09:52:30;16.90;85.30
22192;DHT22;11261;52.456;10.850;2023-04-30T09:54:59;18.30;86.50
22192;DHT22;11261;52.456;10.850;2023-04-30T09:57:29;19.50;85.90
22192;DHT22;11261;52.456;10.850;2023-04-30T10:00:04;19.30;78.80
22192;DHT22;11261;52.456;10.850;2023-04-30T10:02:35;19.40;75.40
22192;DHT22;11261;52.456;10.850;2023-04-30T10:05:05;19.50;78.80
22192;DHT22;11261;52.456;10.850;2023-04-30T10:07:38;17.10;77.10
22192;DHT22;11261;52.456;10.850;2023-04-30T10:10:08;18.60;89.00
22192;DHT22;11261;52.456;10.850;2023-04-30T10:12:42;19.20;81.50
22192;DHT22;11261;52.456;10.850;2023-04-30T10:15:14;19.50;76.10
22192;DHT22;11261;52.456;10.850;2023-04-30T10:17:46;20.10;77.50
22192;DHT22;11261;52.456;10.850;2023-04-30T10:20:16;19.90;76.50
22192;DHT22;11261;52.456;10.850;2023-04-30T10:22:47;20.00;80.80
22192;DHT22;11261;52.456;10.850;2023-04-30T10:25:16;20.60;83.50
22192;DHT22;11261;52.456;10.850;2023-04-30T10:27:44;19.40;70.90
22192;DHT22;11261;52.456;10.850;2023-04-30T10:30:14;18.50;72.70
22192;DHT22;11261;52.456;10.850;2023-04-30T10:32:48;18.80;77.10
22192;DHT22;11261;52.456;10.850;2023-04-30T10:35:23;17.90;73.10
22192;DHT22;11261;52.456;10.850;2023-04-30T10:37:56;17.00;89.00
22192;DHT22;11261;52.456;10.850;2023-04-30T10:40:26;18.70;83.80
22192;DHT22;11261;52.456;10.850;2023-04-30T10:42:54;17.40;74.60
22192;DHT22;11261;52.456;10.850;2023-04-30T10:45:35;18.20;83.80
22192;DHT22;11261;52.456;10.850;2023-04-30T10:48:05;19.10;74.40
22192;DHT22;11261;52.456;10.850;2023-04-30T10:50:39;17.80;72.40
22192;DHT22;11261;52.456;10.850;2023-04-30T10:53:12;18.90;77.30
22192;DHT22;11261;52.456;10.850;2023-04-30T10:55:46;19.50;72.20
22192;DHT22;11261;52.456;10.850;2023-04-30T10:58:23;19.50;78.40
22192;DHT22;11261;52.456;10.850;2023-04-30T11:01:01;20.10;82.60
22192;DHT22;11261;52.456;10.850;2023-04-30T11:03:31;20.10;75.00
22192;DHT22;11261;52.456;10.850;2023-04-30T11:05:59;18.00;79.40
22192;DHT22;11261;52.456;10.850;2023-04-30T11:08:33;18.50;79.70
22192;DHT22;11261;52.456;10.850;2023-04-30T11:11:02;18.50;74.80
22192;DHT22;11261;52.456;10.850;2023-04-30T11:13:42;18.40;76.40
22192;DHT22;11261;52.456;10.850;2023-04-30T11:16:13;19.20;71.90
22192;DHT22;11261;52.456;10.850;2023-04-30T11:18:44;20.30;79.40
22192;DHT22;11261;52.456;10.850;2023-04-30T11:21:12;17.40;74.50
22192;DHT22;11261;52.456;10.850;2023-04-30T11:23:41;18.80;82.80
22192;DHT22;11261;52.456;10.850;2023-04-30T11:26:10;20.10;74.90
22192;DHT22;11261;52.456;10.850;2023-04-30T11:28:38;19.80;78.80
22192;DHT22;11261;52.456;10.850;2023-04-30T11:31:18;20.80;82.40
22192;DHT22;11261;52.456;10.850;2023-04-30T11:33:47;20.90;77.30
22192;DHT22;11261;52.456;10.850;2023-04-30T11:36:16;20.90;77.00
22192;DHT22;11261;52.456;10.850;2023-04-30T11:38:44;20.60;67.90
22192;DHT22;11261;52.456;10.850;2023-04-30T11:41:12;19.80;68.00
22192;DHT22;11261;52.456;10.850;2023-04-30T11:43:40;18.20;70.00
22192;DHT22;11261;52.456;10.850;2023-04-30T11:46:10;15.10;84.30
22192;DHT22;11261;52.456;10.850;2023-04-30T11:48:42;17.30;77.80
22192;DHT22;11261;52.456;10.850;2023-04-30T11:51:15;16.30;79.70
22192;DHT22;11261;52.456;10.850;2023-04-30T11:53:45;19.10;82.20
22192;DHT22;11261;52.456;10.850;2023-04-30T11:56:17;20.20;79.70
22192;DHT22;11261;52.456;10.850;2023-04-30T11:58:48;20.60;74.90
22192;DHT22;11261;52.456;10.850;2023-04-30T12:01:16;18.00;71.80
22192;DHT22;11261;52.456;10.850;2023-04-30T12:03:47;18.30;80.10
22192;DHT22;11261;52.456;10.850;2023-04-30T12:06:21;19.60;77.30
22192;DHT22;11261;52.456;10.850;2023-04-30T12:08:52;20.70;75.30
22192;DHT22;11261;52.456;10.850;2023-04-30T12:11:21;20.40;67.00
22192;DHT22;11261;52.456;10.850;2023-04-30T12:13:52;16.10;82.30
22192;DHT22;11261;52.456;10.850;2023-04-30T12:16:22;19.20;75.00
22192;DHT22;11261;52.456;10.850;2023-04-30T12:18:52;18.70;71.70
22192;DHT22;11261;52.456;10.850;2023-04-30T12:21:21;19.50;67.10
22192;DHT22;11261;52.456;10.850;2023-04-30T12:23:50;18.50;73.30
22192;DHT22;11261;52.456;10.850;2023-04-30T12:26:19;20.20;77.80
22192;DHT22;11261;52.456;10.850;2023-04-30T12:28:48;20.70;73.60
22192;DHT22;11261;52.456;10.850;2023-04-30T12:31:16;21.00;73.30
22192;DHT22;11261;52.456;10.850;2023-04-30T12:33:54;21.20;74.90
22192;DHT22;11261;52.456;10.850;2023-04-30T12:36:29;19.30;63.20
22192;DHT22;11261;52.456;10.850;2023-04-30T12:39:16;19.80;75.70
22192;DHT22;11261;52.456;10.850;2023-04-30T12:41:46;20.50;73.90
22192;DHT22;11261;52.456;10.850;2023-04-30T12:44:19;20.10;65.10
22192;DHT22;11261;52.456;10.850;2023-04-30T12:46:48;20.10;69.10
22192;DHT22;11261;52.456;10.850;2023-04-30T12:49:23;18.80;64.30
22192;DHT22;11261;52.456;10.850;2023-04-30T12:51:57;17.00;69.30
22192;DHT22;11261;52.456;10.850;2023-04-30T12:54:26;16.60;70.90
22192;DHT22;11261;52.456;10.850;2023-04-30T12:56:57;16.50;74.40
22192;DHT22;11261;52.456;10.850;2023-04-30T12:59:26;16.90;75.30
22192;DHT22;11261;52.456;10.850;2023-04-30T13:01:54;19.00;65.90
22192;DHT22;11261;52.456;10.850;2023-04-30T13:04:23;19.70;67.30
22192;DHT22;11261;52.456;10.850;2023-04-30T13:06:52;20.00;69.50
22192;DHT22;11261;52.456;10.850;2023-04-30T13:09:21;19.70;64.70
22192;DHT22;11261;52.456;10.850;2023-04-30T13:11:49;18.30;63.90
22192;DHT22;11261;52.456;10.850;2023-04-30T13:14:17;17.00;74.80
22192;DHT22;11261;52.456;10.850;2023-04-30T13:16:45;18.20;69.60
22192;DHT22;11261;52.456;10.850;2023-04-30T13:19:14;19.40;65.80
22192;DHT22;11261;52.456;10.850;2023-04-30T13:21:44;18.70;61.30
22192;DHT22;11261;52.456;10.850;2023-04-30T13:24:12;17.80;75.10
22192;DHT22;11261;52.456;10.850;2023-04-30T13:26:40;19.10;68.70
22192;DHT22;11261;52.456;10.850;2023-04-30T13:29:09;19.40;67.70
22192;DHT22;11261;52.456;10.850;2023-04-30T13:31:37;17.10;67.20
22192;DHT22;11261;52.456;10.850;2023-04-30T13:34:06;17.80;75.70
22192;DHT22;11261;52.456;10.850;2023-04-30T13:36:35;17.80;71.30
22192;DHT22;11261;52.456;10.850;2023-04-30T13:39:04;17.80;75.70
22192;DHT22;11261;52.456;10.850;2023-04-30T13:41:33;19.50;76.60
22192;DHT22;11261;52.456;10.850;2023-04-30T13:44:01;18.60;66.50
22192;DHT22;11261;52.456;10.850;2023-04-30T13:46:29;18.20;67.10
22192;DHT22;11261;52.456;10.850;2023-04-30T13:48:58;17.30;69.70
22192;DHT22;11261;52.456;10.850;2023-04-30T13:51:26;17.80;69.90
22192;DHT22;11261;52.456;10.850;2023-04-30T13:53:54;17.40;69.20
22192;DHT22;11261;52.456;10.850;2023-04-30T13:56:24;18.50;73.50
22192;DHT22;11261;52.456;10.850;2023-04-30T13:58:52;19.30;64.30
22192;DHT22;11261;52.456;10.850;2023-04-30T14:01:21;19.90;73.10
22192;DHT22;11261;52.456;10.850;2023-04-30T14:03:49;20.10;69.20
22192;DHT22;11261;52.456;10.850;2023-04-30T14:06:17;20.10;70.70
22192;DHT22;11261;52.456;10.850;2023-04-30T14:08:45;20.10;67.90
22192;DHT22;11261;52.456;10.850;2023-04-30T14:11:14;19.90;71.70
22192;DHT22;11261;52.456;10.850;2023-04-30T14:13:43;19.20;62.50
22192;DHT22;11261;52.456;10.850;2023-04-30T14:16:12;18.60;62.20
22192;DHT22;11261;52.456;10.850;2023-04-30T14:18:40;16.30;66.50
22192;DHT22;11261;52.456;10.850;2023-04-30T14:21:09;15.80;66.50
22192;DHT22;11261;52.456;10.850;2023-04-30T14:23:38;16.10;66.70
22192;DHT22;11261;52.456;10.850;2023-04-30T14:26:07;17.30;70.80
22192;DHT22;11261;52.456;10.850;2023-04-30T14:28:35;15.90;67.30
22192;DHT22;11261;52.456;10.850;2023-04-30T14:31:05;18.00;70.10
22192;DHT22;11261;52.456;10.850;2023-04-30T14:33:33;18.30;70.00
22192;DHT22;11261;52.456;10.850;2023-04-30T14:36:01;19.10;67.40
22192;DHT22;11261;52.456;10.850;2023-04-30T14:38:30;17.40;60.80
22192;DHT22;11261;52.456;10.850;2023-04-30T14:40:58;17.70;69.70
22192;DHT22;11261;52.456;10.850;2023-04-30T14:43:26;18.40;65.50
22192;DHT22;11261;52.456;10.850;2023-04-30T14:45:55;18.10;63.40
22192;DHT22;11261;52.456;10.850;2023-04-30T14:48:25;17.60;64.10
22192;DHT22;11261;52.456;10.850;2023-04-30T14:50:53;18.60;69.20
22192;DHT22;11261;52.456;10.850;2023-04-30T14:53:21;17.90;59.10
22192;DHT22;11261;52.456;10.850;2023-04-30T14:55:49;18.20;61.40
22192;DHT22;11261;52.456;10.850;2023-04-30T14:58:18;18.40;64.80
22192;DHT22;11261;52.456;10.850;2023-04-30T15:00:47;18.00;66.40
22192;DHT22;11261;52.456;10.850;2023-04-30T15:03:15;17.60;65.90
22192;DHT22;11261;52.456;10.850;2023-04-30T15:05:45;16.00;68.10
22192;DHT22;11261;52.456;10.850;2023-04-30T15:08:15;17.10;69.60
22192;DHT22;11261;52.456;10.850;2023-04-30T15:10:43;16.20;67.70
22192;DHT22;11261;52.456;10.850;2023-04-30T15:13:12;15.90;66.70
22192;DHT22;11261;52.456;10.850;2023-04-30T15:15:40;15.70;71.50
22192;DHT22;11261;52.456;10.850;2023-04-30T15:18:09;16.30;66.50
22192;DHT22;11261;52.456;10.850;2023-04-30T15:20:37;15.80;66.40
22192;DHT22;11261;52.456;10.850;2023-04-30T15:23:06;15.80;68.70
22192;DHT22;11261;52.456;10.850;2023-04-30T15:25:35;15.80;68.80
22192;DHT22;11261;52.456;10.850;2023-04-30T15:28:03;15.40;67.90
22192;DHT22;11261;52.456;10.850;2023-04-30T15:30:32;15.20;69.10
22192;DHT22;11261;52.456;10.850;2023-04-30T15:33:01;15.30;69.10
22192;DHT22;11261;52.456;10.850;2023-04-30T15:35:29;16.40;72.90